Sovereign Ob4, — 9HUE9 — position and weather

sailwx.info

Track history (hours):
 
Tides and Currents Weather Stations Pressure Air Temp Water Temp Dewpoint Dewpoint Depression Visibility Wind Speed Wind Dir Waves Ship Positions

Sovereign Ob4,

Last reported at 2014-Jul-21 17:18 UTC. Time now 2014-Jul-23 13:59 UTC.
Position N 35°45' E 023°32'.

Length 539 m; draft 20.7 m.

Type: Ship. MMSI: 249539000.

Date/timePositionNaut miles runAvg speedWind from/ knotsBaromVisibWave heightAir tempDewpointWater temp
2014-Jul-21 17:18N 35°45' E 023°32'37 2.5
2014-Jul-21 02:30N 35°32' E 024°14'1313.6
2014-Jul-21 01:33N 35°42' E 024°25'1514.9
2014-Jul-21 00:33N 35°53' E 024°37'1514.6
2014-Jul-20 23:33N 36°04' E 024°49'1413.8
2014-Jul-20 22:30N 36°15' E 025°01'1414.6
2014-Jul-20 21:33N 36°25' E 025°12'1616.0
2014-Jul-20 20:33N 36°37' E 025°27'1716.4
2014-Jul-20 19:32N 36°48' E 025°42'1616.3
2014-Jul-20 18:32N 37°01' E 025°53'1616.1
2014-Jul-20 17:33N 37°14' E 026°05'1716.2
2014-Jul-20 16:31N 37°28' E 026°17'25 1.8
2014-Jul-20 02:31N 37°53' E 026°12'3115.8
2014-Jul-20 00:33N 37°41' E 025°35'1616.0
2014-Jul-19 23:32N 37°32' E 025°18'1615.6
2014-Jul-19 22:32N 37°32' E 024°58'1716.8
2014-Jul-19 21:31N 37°32' E 024°37'53 6.6
2014-Jul-19 13:32N 37°56' E 023°38'0 0.0
2014-Jul-19 12:32N 37°56' E 023°38'0 0.0
2014-Jul-19 11:32N 37°56' E 023°38'0 0.0
2014-Jul-19 10:32N 37°56' E 023°38'0 0.0
2014-Jul-19 09:32N 37°56' E 023°38'1 1.0
2014-Jul-19 08:33N 37°56' E 023°37'1515.0
2014-Jul-19 07:33N 37°42' E 023°44'1717.2
2014-Jul-19 06:33N 37°25' E 023°43'1717.4
2014-Jul-19 05:32N 37°08' E 023°39'1716.7
2014-Jul-19 04:33N 36°52' E 023°35'2116.4
2014-Jul-19 03:16N 36°34' E 023°21'1415.4
2014-Jul-19 02:20N 36°23' E 023°10'37911.2
2014-Jul-17 16:32N 38°19' E 015°36'1717.1
2014-Jul-17 15:33N 38°18' E 015°15'3517.4
2014-Jul-17 13:33N 38°14' E 014°30'1717.2
2014-Jul-17 12:33N 38°12' E 014°09'1717.3
2014-Jul-17 11:33N 38°10' E 013°47'1716.9
2014-Jul-17 10:33N 38°08' E 013°25'3 2.7
2014-Jul-17 09:32N 38°08' E 013°22'0 0.0
2014-Jul-17 08:32N 38°08' E 013°22'0 0.0
2014-Jul-17 07:32N 38°08' E 013°22'0 0.0
2014-Jul-17 06:32N 38°08' E 013°22'0 0.0
2014-Jul-17 05:32N 38°08' E 013°22'1 1.3
2014-Jul-17 04:33N 38°07' E 013°24'8 8.0
2014-Jul-17 03:33N 38°15' E 013°24'1211.7
2014-Jul-17 02:34N 38°19' E 013°10'1514.6
2014-Jul-17 01:32N 38°20' E 012°51'17015.2
2014-Jul-16 14:22N 38°35' E 009°14'22516.1
2014-Jul-16 00:23N 40°10' E 004°49'1615.8
2014-Jul-15 23:25N 40°17' E 004°32'1516.2
2014-Jul-15 22:29N 40°25' E 004°14'1715.6
2014-Jul-15 21:24N 40°33' E 003°55'1716.4
2014-Jul-15 20:23N 40°41' E 003°36'1316.3
2014-Jul-15 19:33N 40°47' E 003°20'1616.5
2014-Jul-15 18:33N 40°55' E 003°01'1716.6
2014-Jul-15 17:33N 41°03' E 002°41'1616.3
2014-Jul-15 16:33N 41°11' E 002°23'1412.9
2014-Jul-15 15:29N 41°21' E 002°10'1 0.1
2014-Jul-15 07:24N 41°22' E 002°11'0 0.1
2014-Jul-15 06:33N 41°22' E 002°11'8 6.9
2014-Jul-15 05:24N 41°17' E 002°19'1315.1
2014-Jul-15 04:33N 41°19' E 002°36'1918.9
2014-Jul-15 03:33N 41°21' E 003°01'1717.4
2014-Jul-15 02:33N 41°22' E 003°24'1817.6
2014-Jul-15 01:33N 41°24' E 003°48'1917.8
2014-Jul-15 00:29N 41°26' E 004°13'1616.8
2014-Jul-14 23:33N 41°28' E 004°34'1616.5
2014-Jul-14 22:33N 41°30' E 004°56'1816.9
2014-Jul-14 21:30N 41°32' E 005°19'1616.3
2014-Jul-14 20:33N 41°33' E 005°40'1716.7
2014-Jul-14 19:32N 41°35' E 006°02'1616.5
2014-Jul-14 18:33N 41°37' E 006°24'1616.5
2014-Jul-14 17:33N 41°38' E 006°46'99 4.7
2014-Jul-13 20:30N 43°09' E 007°41'1311.5
2014-Jul-13 19:24N 43°20' E 007°33'1011.5
2014-Jul-13 18:34N 43°29' E 007°27'1211.8
2014-Jul-13 17:34N 43°39' E 007°19'3 1.2
2014-Jul-13 15:19N 43°42' E 007°19'0 0.0
2014-Jul-13 14:25N 43°42' E 007°19'0 0.0
2014-Jul-13 13:19N 43°42' E 007°19'0 0.0
2014-Jul-13 12:31N 43°42' E 007°19'0 0.0
2014-Jul-13 11:07N 43°42' E 007°19'0 0.1
2014-Jul-13 10:25N 43°42' E 007°19'0 0.0
2014-Jul-13 09:25N 43°42' E 007°19'0 0.1
2014-Jul-13 08:33N 43°42' E 007°19'1212.1
2014-Jul-13 07:33N 43°30' E 007°17'1616.2
2014-Jul-13 06:33N 43°15' E 007°08'1716.6
2014-Jul-13 05:33N 43°02' E 006°53'1716.6
2014-Jul-13 04:33N 42°50' E 006°38'1717.2
2014-Jul-13 03:33N 42°42' E 006°17'1717.4
2014-Jul-13 02:33N 42°35' E 005°56'2018.2
2014-Jul-13 01:28N 42°26' E 005°31'1617.0
2014-Jul-13 00:33N 42°20' E 005°12'1817.1
2014-Jul-12 23:30N 42°12' E 004°50'1817.7
2014-Jul-12 22:30N 42°04' E 004°29'1717.4
2014-Jul-12 21:33N 41°57' E 004°08'1818.0
2014-Jul-12 20:33N 41°50' E 003°46'77 6.9
2014-Jul-12 09:21N 41°22' E 002°11'0 0.0
2014-Jul-12 07:27N 41°22' E 002°11'1 1.1
2014-Jul-12 06:33N 41°21' E 002°10'7 6.8
2014-Jul-12 05:33N 41°18' E 002°18'1917.6
2014-Jul-12 04:30N 41°26' E 002°40'2016.8
2014-Jul-12 03:17N 41°36' E 003°04'1316.8
2014-Jul-12 02:30N 41°43' E 003°19'1717.0
2014-Jul-12 01:30N 41°50' E 003°39'2215.7
2014-Jul-12 00:08N 42°00' E 004°05'1016.8
2014-Jul-11 23:33N 42°04' E 004°17'1716.6
2014-Jul-11 22:33N 42°12' E 004°37'1716.3
2014-Jul-11 21:32N 42°20' E 004°57'2116.5
2014-Jul-11 20:17N 42°29' E 005°21'1216.8
2014-Jul-11 19:33N 42°35' E 005°36'1616.0
2014-Jul-11 18:33N 42°42' E 005°56'1615.7
2014-Jul-11 17:33N 42°49' E 006°15'  
Track history (hours):
 
Tides and Currents Weather Stations Pressure Air Temp Water Temp Dewpoint Dewpoint Depression Visibility Wind Speed Wind Dir Waves Ship Positions

Sovereign Ob4,

Last reported at 2014-Jul-21 17:18 UTC. Time now 2014-Jul-23 13:59 UTC.
Position N 35°45' E 023°32'.

Length 539 m; draft 20.7 m.

Type: Ship. MMSI: 249539000.

Date/timePositionNaut miles runAvg speedWind from/ knotsBaromVisibWave heightAir tempDewpointWater temp
2014-Jul-21 17:18N 35°45' E 023°32'37 2.5
2014-Jul-21 02:30N 35°32' E 024°14'1313.6
2014-Jul-21 01:33N 35°42' E 024°25'1514.9
2014-Jul-21 00:33N 35°53' E 024°37'1514.6
2014-Jul-20 23:33N 36°04' E 024°49'1413.8
2014-Jul-20 22:30N 36°15' E 025°01'1414.6
2014-Jul-20 21:33N 36°25' E 025°12'1616.0
2014-Jul-20 20:33N 36°37' E 025°27'1716.4
2014-Jul-20 19:32N 36°48' E 025°42'1616.3
2014-Jul-20 18:32N 37°01' E 025°53'1616.1
2014-Jul-20 17:33N 37°14' E 026°05'1716.2
2014-Jul-20 16:31N 37°28' E 026°17'25 1.8
2014-Jul-20 02:31N 37°53' E 026°12'3115.8
2014-Jul-20 00:33N 37°41' E 025°35'1616.0
2014-Jul-19 23:32N 37°32' E 025°18'1615.6
2014-Jul-19 22:32N 37°32' E 024°58'1716.8
2014-Jul-19 21:31N 37°32' E 024°37'53 6.6
2014-Jul-19 13:32N 37°56' E 023°38'0 0.0
2014-Jul-19 12:32N 37°56' E 023°38'0 0.0
2014-Jul-19 11:32N 37°56' E 023°38'0 0.0
2014-Jul-19 10:32N 37°56' E 023°38'0 0.0
2014-Jul-19 09:32N 37°56' E 023°38'1 1.0
2014-Jul-19 08:33N 37°56' E 023°37'1515.0
2014-Jul-19 07:33N 37°42' E 023°44'1717.2
2014-Jul-19 06:33N 37°25' E 023°43'1717.4
2014-Jul-19 05:32N 37°08' E 023°39'1716.7
2014-Jul-19 04:33N 36°52' E 023°35'2116.4
2014-Jul-19 03:16N 36°34' E 023°21'1415.4
2014-Jul-19 02:20N 36°23' E 023°10'37911.2
2014-Jul-17 16:32N 38°19' E 015°36'1717.1
2014-Jul-17 15:33N 38°18' E 015°15'3517.4
2014-Jul-17 13:33N 38°14' E 014°30'1717.2
2014-Jul-17 12:33N 38°12' E 014°09'1717.3
2014-Jul-17 11:33N 38°10' E 013°47'1716.9
2014-Jul-17 10:33N 38°08' E 013°25'3 2.7
2014-Jul-17 09:32N 38°08' E 013°22'0 0.0
2014-Jul-17 08:32N 38°08' E 013°22'0 0.0
2014-Jul-17 07:32N 38°08' E 013°22'0 0.0
2014-Jul-17 06:32N 38°08' E 013°22'0 0.0
2014-Jul-17 05:32N 38°08' E 013°22'1 1.3
2014-Jul-17 04:33N 38°07' E 013°24'8 8.0
2014-Jul-17 03:33N 38°15' E 013°24'1211.7
2014-Jul-17 02:34N 38°19' E 013°10'1514.6
2014-Jul-17 01:32N 38°20' E 012°51'17015.2
2014-Jul-16 14:22N 38°35' E 009°14'22516.1
2014-Jul-16 00:23N 40°10' E 004°49'1615.8
2014-Jul-15 23:25N 40°17' E 004°32'1516.2
2014-Jul-15 22:29N 40°25' E 004°14'1715.6
2014-Jul-15 21:24N 40°33' E 003°55'1716.4
2014-Jul-15 20:23N 40°41' E 003°36'1316.3
2014-Jul-15 19:33N 40°47' E 003°20'1616.5
2014-Jul-15 18:33N 40°55' E 003°01'1716.6
2014-Jul-15 17:33N 41°03' E 002°41'1616.3
2014-Jul-15 16:33N 41°11' E 002°23'1412.9
2014-Jul-15 15:29N 41°21' E 002°10'1 0.1
2014-Jul-15 07:24N 41°22' E 002°11'0 0.1
2014-Jul-15 06:33N 41°22' E 002°11'8 6.9
2014-Jul-15 05:24N 41°17' E 002°19'1315.1
2014-Jul-15 04:33N 41°19' E 002°36'1918.9
2014-Jul-15 03:33N 41°21' E 003°01'1717.4
2014-Jul-15 02:33N 41°22' E 003°24'1817.6
2014-Jul-15 01:33N 41°24' E 003°48'1917.8
2014-Jul-15 00:29N 41°26' E 004°13'1616.8
2014-Jul-14 23:33N 41°28' E 004°34'1616.5
2014-Jul-14 22:33N 41°30' E 004°56'1816.9
2014-Jul-14 21:30N 41°32' E 005°19'1616.3
2014-Jul-14 20:33N 41°33' E 005°40'1716.7
2014-Jul-14 19:32N 41°35' E 006°02'1616.5
2014-Jul-14 18:33N 41°37' E 006°24'1616.5
2014-Jul-14 17:33N 41°38' E 006°46'99 4.7
2014-Jul-13 20:30N 43°09' E 007°41'1311.5
2014-Jul-13 19:24N 43°20' E 007°33'1011.5
2014-Jul-13 18:34N 43°29' E 007°27'1211.8
2014-Jul-13 17:34N 43°39' E 007°19'3 1.2
2014-Jul-13 15:19N 43°42' E 007°19'0 0.0
2014-Jul-13 14:25N 43°42' E 007°19'0 0.0
2014-Jul-13 13:19N 43°42' E 007°19'0 0.0
2014-Jul-13 12:31N 43°42' E 007°19'0 0.0
2014-Jul-13 11:07N 43°42' E 007°19'0 0.1
2014-Jul-13 10:25N 43°42' E 007°19'0 0.0
2014-Jul-13 09:25N 43°42' E 007°19'0 0.1
2014-Jul-13 08:33N 43°42' E 007°19'1212.1
2014-Jul-13 07:33N 43°30' E 007°17'1616.2
2014-Jul-13 06:33N 43°15' E 007°08'1716.6
2014-Jul-13 05:33N 43°02' E 006°53'1716.6
2014-Jul-13 04:33N 42°50' E 006°38'1717.2
2014-Jul-13 03:33N 42°42' E 006°17'1717.4
2014-Jul-13 02:33N 42°35' E 005°56'2018.2
2014-Jul-13 01:28N 42°26' E 005°31'1617.0
2014-Jul-13 00:33N 42°20' E 005°12'1817.1
2014-Jul-12 23:30N 42°12' E 004°50'1817.7
2014-Jul-12 22:30N 42°04' E 004°29'1717.4
2014-Jul-12 21:33N 41°57' E 004°08'1818.0
2014-Jul-12 20:33N 41°50' E 003°46'77 6.9
2014-Jul-12 09:21N 41°22' E 002°11'0 0.0
2014-Jul-12 07:27N 41°22' E 002°11'1 1.1
2014-Jul-12 06:33N 41°21' E 002°10'7 6.8
2014-Jul-12 05:33N 41°18' E 002°18'1917.6
2014-Jul-12 04:30N 41°26' E 002°40'2016.8
2014-Jul-12 03:17N 41°36' E 003°04'1316.8
2014-Jul-12 02:30N 41°43' E 003°19'1717.0
2014-Jul-12 01:30N 41°50' E 003°39'2215.7
2014-Jul-12 00:08N 42°00' E 004°05'1016.8
2014-Jul-11 23:33N 42°04' E 004°17'1716.6
2014-Jul-11 22:33N 42°12' E 004°37'1716.3
2014-Jul-11 21:32N 42°20' E 004°57'2116.5
2014-Jul-11 20:17N 42°29' E 005°21'1216.8
2014-Jul-11 19:33N 42°35' E 005°36'1616.0
2014-Jul-11 18:33N 42°42' E 005°56'1615.7
2014-Jul-11 17:33N 42°49' E 006°15'  

Dump ship's entire track history